sensor_id;sensor_type;location;lat;lon;timestamp;temperature;humidity
18882;DHT22;9573;50.948;11.600;2023-06-22T00:01:33;21.20;99.90
18882;DHT22;9573;50.948;11.600;2023-06-22T00:04:00;21.20;99.90
18882;DHT22;9573;50.948;11.600;2023-06-22T00:06:27;21.10;99.90
18882;DHT22;9573;50.948;11.600;2023-06-22T00:08:56;21.00;99.90
18882;DHT22;9573;50.948;11.600;2023-06-22T00:11:23;21.00;99.90
18882;DHT22;9573;50.948;11.600;2023-06-22T00:13:50;20.90;99.90
18882;DHT22;9573;50.948;11.600;2023-06-22T00:16:17;20.90;99.90
18882;DHT22;9573;50.948;11.600;2023-06-22T00:18:44;20.80;99.90
18882;DHT22;9573;50.948;11.600;2023-06-22T00:21:12;20.80;99.90
18882;DHT22;9573;50.948;11.600;2023-06-22T00:23:39;20.70;99.90
18882;DHT22;9573;50.948;11.600;2023-06-22T00:26:08;20.60;99.90
18882;DHT22;9573;50.948;11.600;2023-06-22T00:28:35;20.50;99.90
18882;DHT22;9573;50.948;11.600;2023-06-22T00:31:03;20.50;99.90
18882;DHT22;9573;50.948;11.600;2023-06-22T00:33:30;20.40;99.90
18882;DHT22;9573;50.948;11.600;2023-06-22T00:35:57;20.30;99.90
18882;DHT22;9573;50.948;11.600;2023-06-22T00:38:24;20.30;99.90
18882;DHT22;9573;50.948;11.600;2023-06-22T00:40:51;20.30;99.90
18882;DHT22;9573;50.948;11.600;2023-06-22T00:43:19;20.20;99.90
18882;DHT22;9573;50.948;11.600;2023-06-22T00:45:47;20.10;99.90
18882;DHT22;9573;50.948;11.600;2023-06-22T00:48:14;20.10;99.90
18882;DHT22;9573;50.948;11.600;2023-06-22T00:50:42;20.00;99.90
18882;DHT22;9573;50.948;11.600;2023-06-22T00:53:09;20.00;99.90
18882;DHT22;9573;50.948;11.600;2023-06-22T00:55:38;19.90;99.90
18882;DHT22;9573;50.948;11.600;2023-06-22T00:58:08;19.90;99.90
18882;DHT22;9573;50.948;11.600;2023-06-22T01:00:37;19.90;99.90
18882;DHT22;9573;50.948;11.600;2023-06-22T01:03:04;19.90;99.90
18882;DHT22;9573;50.948;11.600;2023-06-22T01:05:34;19.80;99.90
18882;DHT22;9573;50.948;11.600;2023-06-22T01:08:16;19.80;99.90
18882;DHT22;9573;50.948;11.600;2023-06-22T01:10:52;19.70;99.90
18882;DHT22;9573;50.948;11.600;2023-06-22T01:13:35;19.70;99.90
18882;DHT22;9573;50.948;11.600;2023-06-22T01:16:10;19.60;99.90
18882;DHT22;9573;50.948;11.600;2023-06-22T01:18:43;19.60;99.90
18882;DHT22;9573;50.948;11.600;2023-06-22T01:21:13;19.60;99.90
18882;DHT22;9573;50.948;11.600;2023-06-22T01:23:51;19.50;99.90
18882;DHT22;9573;50.948;11.600;2023-06-22T01:29:16;19.40;99.90
18882;DHT22;9573;50.948;11.600;2023-06-22T01:31:44;19.40;99.90
18882;DHT22;9573;50.948;11.600;2023-06-22T01:34:12;19.40;99.90
18882;DHT22;9573;50.948;11.600;2023-06-22T01:36:40;19.30;99.90
18882;DHT22;9573;50.948;11.600;2023-06-22T01:39:09;19.40;99.90
18882;DHT22;9573;50.948;11.600;2023-06-22T01:41:38;19.30;99.90
18882;DHT22;9573;50.948;11.600;2023-06-22T01:44:08;19.20;99.90
18882;DHT22;9573;50.948;11.600;2023-06-22T01:46:38;19.20;99.90
18882;DHT22;9573;50.948;11.600;2023-06-22T01:49:06;19.20;99.90
18882;DHT22;9573;50.948;11.600;2023-06-22T01:51:34;19.20;99.90
18882;DHT22;9573;50.948;11.600;2023-06-22T01:54:01;19.20;99.90
18882;DHT22;9573;50.948;11.600;2023-06-22T01:56:28;19.10;99.90
18882;DHT22;9573;50.948;11.600;2023-06-22T01:59:01;19.10;99.90
18882;DHT22;9573;50.948;11.600;2023-06-22T02:01:39;19.00;99.90
18882;DHT22;9573;50.948;11.600;2023-06-22T02:04:12;19.00;99.90
18882;DHT22;9573;50.948;11.600;2023-06-22T02:06:43;19.00;99.90
18882;DHT22;9573;50.948;11.600;2023-06-22T02:09:14;19.00;99.90
18882;DHT22;9573;50.948;11.600;2023-06-22T02:11:45;19.00;99.90
18882;DHT22;9573;50.948;11.600;2023-06-22T02:14:14;18.90;99.90
18882;DHT22;9573;50.948;11.600;2023-06-22T02:16:43;18.90;99.90
18882;DHT22;9573;50.948;11.600;2023-06-22T02:19:10;18.90;99.90
18882;DHT22;9573;50.948;11.600;2023-06-22T02:21:37;18.90;99.90
18882;DHT22;9573;50.948;11.600;2023-06-22T02:24:04;18.80;99.90
18882;DHT22;9573;50.948;11.600;2023-06-22T02:26:32;18.80;99.90
18882;DHT22;9573;50.948;11.600;2023-06-22T02:29:00;18.80;99.90
18882;DHT22;9573;50.948;11.600;2023-06-22T02:31:27;18.80;99.90
18882;DHT22;9573;50.948;11.600;2023-06-22T02:33:57;18.80;99.90
18882;DHT22;9573;50.948;11.600;2023-06-22T02:36:25;18.80;99.90
18882;DHT22;9573;50.948;11.600;2023-06-22T02:38:52;18.80;99.90
18882;DHT22;9573;50.948;11.600;2023-06-22T02:41:21;18.80;99.90
18882;DHT22;9573;50.948;11.600;2023-06-22T02:43:49;18.90;99.90
18882;DHT22;9573;50.948;11.600;2023-06-22T02:46:16;18.80;99.90
18882;DHT22;9573;50.948;11.600;2023-06-22T02:48:43;18.80;99.90
18882;DHT22;9573;50.948;11.600;2023-06-22T02:51:11;18.80;99.90
18882;DHT22;9573;50.948;11.600;2023-06-22T02:53:38;18.70;99.90
18882;DHT22;9573;50.948;11.600;2023-06-22T02:56:10;18.70;99.90
18882;DHT22;9573;50.948;11.600;2023-06-22T02:58:38;18.70;99.90
18882;DHT22;9573;50.948;11.600;2023-06-22T03:01:05;18.60;99.90
18882;DHT22;9573;50.948;11.600;2023-06-22T03:03:32;18.60;99.90
18882;DHT22;9573;50.948;11.600;2023-06-22T03:06:00;18.60;99.90
18882;DHT22;9573;50.948;11.600;2023-06-22T03:08:29;18.60;99.90
18882;DHT22;9573;50.948;11.600;2023-06-22T03:10:56;18.60;99.90
18882;DHT22;9573;50.948;11.600;2023-06-22T03:13:23;18.60;99.90
18882;DHT22;9573;50.948;11.600;2023-06-22T03:15:50;18.60;99.90
18882;DHT22;9573;50.948;11.600;2023-06-22T03:18:18;18.70;99.90
18882;DHT22;9573;50.948;11.600;2023-06-22T03:20:47;18.70;99.90
18882;DHT22;9573;50.948;11.600;2023-06-22T03:23:15;18.70;99.90
18882;DHT22;9573;50.948;11.600;2023-06-22T03:25:43;18.80;99.90
18882;DHT22;9573;50.948;11.600;2023-06-22T03:28:11;18.80;99.90
18882;DHT22;9573;50.948;11.600;2023-06-22T03:30:38;19.00;99.90
18882;DHT22;9573;50.948;11.600;2023-06-22T03:33:05;19.00;99.90
18882;DHT22;9573;50.948;11.600;2023-06-22T03:35:32;19.10;99.90
18882;DHT22;9573;50.948;11.600;2023-06-22T03:37:59;19.30;99.90
18882;DHT22;9573;50.948;11.600;2023-06-22T03:40:26;19.40;99.90
18882;DHT22;9573;50.948;11.600;2023-06-22T03:42:55;19.60;99.90
18882;DHT22;9573;50.948;11.600;2023-06-22T03:45:22;19.80;99.90
18882;DHT22;9573;50.948;11.600;2023-06-22T03:47:49;19.90;99.90
18882;DHT22;9573;50.948;11.600;2023-06-22T03:50:16;20.00;99.90
18882;DHT22;9573;50.948;11.600;2023-06-22T03:52:45;20.20;99.90
18882;DHT22;9573;50.948;11.600;2023-06-22T03:55:13;20.20;99.90
18882;DHT22;9573;50.948;11.600;2023-06-22T03:57:40;20.10;99.90
18882;DHT22;9573;50.948;11.600;2023-06-22T04:00:09;20.10;99.90
18882;DHT22;9573;50.948;11.600;2023-06-22T04:02:37;20.20;99.90
18882;DHT22;9573;50.948;11.600;2023-06-22T04:05:05;20.20;99.90
18882;DHT22;9573;50.948;11.600;2023-06-22T04:07:32;20.30;99.90
18882;DHT22;9573;50.948;11.600;2023-06-22T04:10:00;20.30;99.90
18882;DHT22;9573;50.948;11.600;2023-06-22T04:12:27;20.50;99.90
18882;DHT22;9573;50.948;11.600;2023-06-22T04:14:54;20.50;99.90
18882;DHT22;9573;50.948;11.600;2023-06-22T04:17:22;20.60;99.90
18882;DHT22;9573;50.948;11.600;2023-06-22T04:19:50;20.70;99.90
18882;DHT22;9573;50.948;11.600;2023-06-22T04:22:17;20.80;99.90
18882;DHT22;9573;50.948;11.600;2023-06-22T04:24:45;21.00;99.90
18882;DHT22;9573;50.948;11.600;2023-06-22T04:27:12;21.30;99.90
18882;DHT22;9573;50.948;11.600;2023-06-22T04:29:39;21.50;99.90
18882;DHT22;9573;50.948;11.600;2023-06-22T04:32:14;21.60;99.90
18882;DHT22;9573;50.948;11.600;2023-06-22T04:34:43;21.80;99.90
18882;DHT22;9573;50.948;11.600;2023-06-22T04:37:10;22.00;99.90
18882;DHT22;9573;50.948;11.600;2023-06-22T04:39:41;22.10;99.90
18882;DHT22;9573;50.948;11.600;2023-06-22T04:42:08;23.30;99.90
18882;DHT22;9573;50.948;11.600;2023-06-22T04:44:35;23.20;99.90
18882;DHT22;9573;50.948;11.600;2023-06-22T04:47:03;22.80;99.90
18882;DHT22;9573;50.948;11.600;2023-06-22T04:49:34;22.50;99.90
18882;DHT22;9573;50.948;11.600;2023-06-22T04:52:06;22.20;99.90
18882;DHT22;9573;50.948;11.600;2023-06-22T04:54:36;22.10;99.90
18882;DHT22;9573;50.948;11.600;2023-06-22T04:57:07;22.20;99.90
18882;DHT22;9573;50.948;11.600;2023-06-22T04:59:36;22.50;99.90
18882;DHT22;9573;50.948;11.600;2023-06-22T05:02:05;23.10;99.90
18882;DHT22;9573;50.948;11.600;2023-06-22T05:04:32;24.50;99.90
18882;DHT22;9573;50.948;11.600;2023-06-22T05:07:02;26.30;99.90
18882;DHT22;9573;50.948;11.600;2023-06-22T05:09:31;28.20;99.90
18882;DHT22;9573;50.948;11.600;2023-06-22T05:11:59;29.10;99.90
18882;DHT22;9573;50.948;11.600;2023-06-22T05:14:28;28.30;99.90
18882;DHT22;9573;50.948;11.600;2023-06-22T05:16:55;27.20;99.90
18882;DHT22;9573;50.948;11.600;2023-06-22T05:19:24;26.20;99.90
18882;DHT22;9573;50.948;11.600;2023-06-22T05:21:58;25.50;99.90
18882;DHT22;9573;50.948;11.600;2023-06-22T05:24:27;25.00;99.90
18882;DHT22;9573;50.948;11.600;2023-06-22T05:26:54;24.70;99.90
18882;DHT22;9573;50.948;11.600;2023-06-22T05:29:21;24.50;99.90
18882;DHT22;9573;50.948;11.600;2023-06-22T05:31:48;24.50;99.90
18882;DHT22;9573;50.948;11.600;2023-06-22T05:34:15;24.90;99.90
18882;DHT22;9573;50.948;11.600;2023-06-22T05:36:43;26.40;99.90
18882;DHT22;9573;50.948;11.600;2023-06-22T05:39:13;28.80;99.90
18882;DHT22;9573;50.948;11.600;2023-06-22T05:41:42;31.70;99.90
18882;DHT22;9573;50.948;11.600;2023-06-22T05:44:10;33.60;99.90
18882;DHT22;9573;50.948;11.600;2023-06-22T05:46:40;33.50;99.90
18882;DHT22;9573;50.948;11.600;2023-06-22T05:49:12;32.50;99.90
18882;DHT22;9573;50.948;11.600;2023-06-22T05:51:39;32.30;99.90
18882;DHT22;9573;50.948;11.600;2023-06-22T05:54:06;32.60;99.90
18882;DHT22;9573;50.948;11.600;2023-06-22T05:56:34;32.70;99.90
18882;DHT22;9573;50.948;11.600;2023-06-22T05:59:03;31.50;99.90
18882;DHT22;9573;50.948;11.600;2023-06-22T06:01:31;30.30;99.90
18882;DHT22;9573;50.948;11.600;2023-06-22T06:04:01;29.50;99.90
18882;DHT22;9573;50.948;11.600;2023-06-22T06:06:29;28.90;99.90
18882;DHT22;9573;50.948;11.600;2023-06-22T06:08:56;28.70;99.90
18882;DHT22;9573;50.948;11.600;2023-06-22T06:11:25;28.40;99.90
18882;DHT22;9573;50.948;11.600;2023-06-22T06:13:52;28.10;99.90
18882;DHT22;9573;50.948;11.600;2023-06-22T06:16:21;28.00;99.90
18882;DHT22;9573;50.948;11.600;2023-06-22T06:18:48;28.00;99.90
18882;DHT22;9573;50.948;11.600;2023-06-22T06:21:16;28.00;99.90
18882;DHT22;9573;50.948;11.600;2023-06-22T06:23:43;28.10;99.90
18882;DHT22;9573;50.948;11.600;2023-06-22T06:26:10;28.20;99.90
18882;DHT22;9573;50.948;11.600;2023-06-22T06:28:37;29.80;99.90
18882;DHT22;9573;50.948;11.600;2023-06-22T06:31:04;30.90;99.90
18882;DHT22;9573;50.948;11.600;2023-06-22T06:33:34;30.50;99.90
18882;DHT22;9573;50.948;11.600;2023-06-22T06:36:01;30.70;99.90
18882;DHT22;9573;50.948;11.600;2023-06-22T06:38:29;31.20;99.90
18882;DHT22;9573;50.948;11.600;2023-06-22T06:40:56;30.50;99.90
18882;DHT22;9573;50.948;11.600;2023-06-22T06:43:23;29.80;99.90
18882;DHT22;9573;50.948;11.600;2023-06-22T06:45:51;29.30;99.90
18882;DHT22;9573;50.948;11.600;2023-06-22T06:48:34;30.90;99.90
18882;DHT22;9573;50.948;11.600;2023-06-22T06:51:01;34.50;99.90
18882;DHT22;9573;50.948;11.600;2023-06-22T06:53:28;37.60;96.40
18882;DHT22;9573;50.948;11.600;2023-06-22T06:55:56;39.60;90.90
18882;DHT22;9573;50.948;11.600;2023-06-22T06:58:23;40.80;81.60
18882;DHT22;9573;50.948;11.600;2023-06-22T07:00:50;41.10;78.20
18882;DHT22;9573;50.948;11.600;2023-06-22T07:03:17;42.00;73.00
18882;DHT22;9573;50.948;11.600;2023-06-22T07:05:45;40.30;73.90
18882;DHT22;9573;50.948;11.600;2023-06-22T07:08:12;40.70;73.10
18882;DHT22;9573;50.948;11.600;2023-06-22T07:10:39;41.60;70.50
18882;DHT22;9573;50.948;11.600;2023-06-22T07:13:06;42.80;66.60
18882;DHT22;9573;50.948;11.600;2023-06-22T07:15:33;43.70;63.50
18882;DHT22;9573;50.948;11.600;2023-06-22T07:18:01;44.40;61.10
18882;DHT22;9573;50.948;11.600;2023-06-22T07:20:28;43.50;60.50
18882;DHT22;9573;50.948;11.600;2023-06-22T07:22:56;41.50;64.00
18882;DHT22;9573;50.948;11.600;2023-06-22T07:25:23;40.30;66.20
18882;DHT22;9573;50.948;11.600;2023-06-22T07:27:58;39.50;68.70
18882;DHT22;9573;50.948;11.600;2023-06-22T07:30:28;41.30;64.80
18882;DHT22;9573;50.948;11.600;2023-06-22T07:32:56;43.00;61.40
18882;DHT22;9573;50.948;11.600;2023-06-22T07:35:23;43.20;60.40
18882;DHT22;9573;50.948;11.600;2023-06-22T07:37:50;44.00;58.70
18882;DHT22;9573;50.948;11.600;2023-06-22T07:40:19;44.80;58.00
18882;DHT22;9573;50.948;11.600;2023-06-22T07:42:46;45.60;56.40
18882;DHT22;9573;50.948;11.600;2023-06-22T07:45:13;45.50;55.30
18882;DHT22;9573;50.948;11.600;2023-06-22T07:47:41;45.20;55.20
18882;DHT22;9573;50.948;11.600;2023-06-22T07:50:09;45.20;54.70
18882;DHT22;9573;50.948;11.600;2023-06-22T07:52:36;44.80;55.00
18882;DHT22;9573;50.948;11.600;2023-06-22T07:55:04;44.90;55.10
18882;DHT22;9573;50.948;11.600;2023-06-22T07:57:33;45.30;54.50
18882;DHT22;9573;50.948;11.600;2023-06-22T08:00:00;45.60;54.10
18882;DHT22;9573;50.948;11.600;2023-06-22T08:02:29;45.50;54.50
18882;DHT22;9573;50.948;11.600;2023-06-22T08:04:56;45.60;54.20
18882;DHT22;9573;50.948;11.600;2023-06-22T08:07:24;45.70;53.40
18882;DHT22;9573;50.948;11.600;2023-06-22T08:09:51;46.10;52.90
18882;DHT22;9573;50.948;11.600;2023-06-22T08:12:19;46.40;51.80
18882;DHT22;9573;50.948;11.600;2023-06-22T08:14:48;46.70;51.50
18882;DHT22;9573;50.948;11.600;2023-06-22T08:17:15;47.00;50.50
18882;DHT22;9573;50.948;11.600;2023-06-22T08:19:42;46.90;50.50
18882;DHT22;9573;50.948;11.600;2023-06-22T08:22:09;46.80;50.20
18882;DHT22;9573;50.948;11.600;2023-06-22T08:24:37;47.20;49.70
18882;DHT22;9573;50.948;11.600;2023-06-22T08:27:07;47.30;49.50
18882;DHT22;9573;50.948;11.600;2023-06-22T08:29:35;47.20;49.00
18882;DHT22;9573;50.948;11.600;2023-06-22T08:32:04;47.10;49.00
18882;DHT22;9573;50.948;11.600;2023-06-22T08:34:32;46.80;49.10
18882;DHT22;9573;50.948;11.600;2023-06-22T08:37:00;45.70;48.80
18882;DHT22;9573;50.948;11.600;2023-06-22T08:39:31;46.00;50.00
18882;DHT22;9573;50.948;11.600;2023-06-22T08:41:59;46.00;49.70
18882;DHT22;9573;50.948;11.600;2023-06-22T08:44:26;46.10;49.20
18882;DHT22;9573;50.948;11.600;2023-06-22T08:46:53;45.70;48.90
18882;DHT22;9573;50.948;11.600;2023-06-22T08:49:22;45.30;49.30
18882;DHT22;9573;50.948;11.600;2023-06-22T08:51:49;45.90;48.70
18882;DHT22;9573;50.948;11.600;2023-06-22T08:54:18;46.30;47.70
18882;DHT22;9573;50.948;11.600;2023-06-22T08:56:45;46.50;47.40
18882;DHT22;9573;50.948;11.600;2023-06-22T08:59:13;46.50;47.20
18882;DHT22;9573;50.948;11.600;2023-06-22T09:01:40;46.10;47.10
18882;DHT22;9573;50.948;11.600;2023-06-22T09:04:11;45.50;47.90
18882;DHT22;9573;50.948;11.600;2023-06-22T09:06:39;45.10;47.90
18882;DHT22;9573;50.948;11.600;2023-06-22T09:09:10;44.40;48.60
18882;DHT22;9573;50.948;11.600;2023-06-22T09:11:37;44.40;48.90
18882;DHT22;9573;50.948;11.600;2023-06-22T09:14:04;44.40;49.00
18882;DHT22;9573;50.948;11.600;2023-06-22T09:16:32;44.50;48.60
18882;DHT22;9573;50.948;11.600;2023-06-22T09:18:59;43.50;49.90
18882;DHT22;9573;50.948;11.600;2023-06-22T09:21:26;43.20;50.10
18882;DHT22;9573;50.948;11.600;2023-06-22T09:23:55;41.90;51.80
18882;DHT22;9573;50.948;11.600;2023-06-22T09:26:22;42.60;51.00
18882;DHT22;9573;50.948;11.600;2023-06-22T09:28:50;43.00;50.20
18882;DHT22;9573;50.948;11.600;2023-06-22T09:31:17;42.30;51.00
18882;DHT22;9573;50.948;11.600;2023-06-22T09:33:51;42.00;51.90
18882;DHT22;9573;50.948;11.600;2023-06-22T09:36:19;43.00;50.70
18882;DHT22;9573;50.948;11.600;2023-06-22T09:38:47;43.30;49.80
18882;DHT22;9573;50.948;11.600;2023-06-22T09:41:19;42.90;50.00
18882;DHT22;9573;50.948;11.600;2023-06-22T09:43:46;43.30;50.20
18882;DHT22;9573;50.948;11.600;2023-06-22T09:46:14;43.40;49.50
18882;DHT22;9573;50.948;11.600;2023-06-22T09:48:41;43.50;50.00
18882;DHT22;9573;50.948;11.600;2023-06-22T09:51:09;43.60;49.50
18882;DHT22;9573;50.948;11.600;2023-06-22T09:53:36;43.60;49.40
18882;DHT22;9573;50.948;11.600;2023-06-22T09:56:04;43.40;49.60
18882;DHT22;9573;50.948;11.600;2023-06-22T09:58:33;43.20;49.90
18882;DHT22;9573;50.948;11.600;2023-06-22T10:01:00;43.20;50.20
18882;DHT22;9573;50.948;11.600;2023-06-22T10:03:27;43.20;49.60
18882;DHT22;9573;50.948;11.600;2023-06-22T10:05:54;43.20;49.50
18882;DHT22;9573;50.948;11.600;2023-06-22T10:08:21;42.80;50.30
18882;DHT22;9573;50.948;11.600;2023-06-22T10:10:48;42.90;51.10
18882;DHT22;9573;50.948;11.600;2023-06-22T10:13:15;42.90;50.40
18882;DHT22;9573;50.948;11.600;2023-06-22T10:15:43;42.90;50.60
18882;DHT22;9573;50.948;11.600;2023-06-22T10:18:15;42.70;50.40
18882;DHT22;9573;50.948;11.600;2023-06-22T10:20:42;42.40;50.80
18882;DHT22;9573;50.948;11.600;2023-06-22T10:23:09;42.50;51.20
18882;DHT22;9573;50.948;11.600;2023-06-22T10:25:36;42.80;50.90
18882;DHT22;9573;50.948;11.600;2023-06-22T10:28:03;42.60;50.80
18882;DHT22;9573;50.948;11.600;2023-06-22T10:30:30;41.60;52.20
18882;DHT22;9573;50.948;11.600;2023-06-22T10:32:59;41.30;53.20
18882;DHT22;9573;50.948;11.600;2023-06-22T10:35:26;40.50;53.60
18882;DHT22;9573;50.948;11.600;2023-06-22T10:37:54;40.50;53.50
18882;DHT22;9573;50.948;11.600;2023-06-22T10:40:22;41.00;53.10
18882;DHT22;9573;50.948;11.600;2023-06-22T10:42:49;40.10;53.60
18882;DHT22;9573;50.948;11.600;2023-06-22T10:45:16;39.00;56.00
18882;DHT22;9573;50.948;11.600;2023-06-22T10:47:44;39.30;55.30
18882;DHT22;9573;50.948;11.600;2023-06-22T10:50:13;39.70;55.50
18882;DHT22;9573;50.948;11.600;2023-06-22T10:52:40;39.10;55.90
18882;DHT22;9573;50.948;11.600;2023-06-22T10:55:08;38.20;57.40
18882;DHT22;9573;50.948;11.600;2023-06-22T10:57:35;37.90;58.10
18882;DHT22;9573;50.948;11.600;2023-06-22T11:00:05;37.90;57.90
18882;DHT22;9573;50.948;11.600;2023-06-22T11:02:36;37.00;59.00
18882;DHT22;9573;50.948;11.600;2023-06-22T11:05:04;37.40;58.90
18882;DHT22;9573;50.948;11.600;2023-06-22T11:07:33;38.30;57.50
18882;DHT22;9573;50.948;11.600;2023-06-22T11:10:00;38.90;56.70
18882;DHT22;9573;50.948;11.600;2023-06-22T11:12:27;39.70;55.90
18882;DHT22;9573;50.948;11.600;2023-06-22T11:14:54;39.70;56.00
18882;DHT22;9573;50.948;11.600;2023-06-22T11:17:22;38.90;56.60
18882;DHT22;9573;50.948;11.600;2023-06-22T11:19:50;39.00;56.90
18882;DHT22;9573;50.948;11.600;2023-06-22T11:22:17;39.80;56.80
18882;DHT22;9573;50.948;11.600;2023-06-22T11:24:45;40.50;55.00
18882;DHT22;9573;50.948;11.600;2023-06-22T11:27:13;41.00;54.30
18882;DHT22;9573;50.948;11.600;2023-06-22T11:29:40;41.40;53.80
18882;DHT22;9573;50.948;11.600;2023-06-22T11:32:07;41.30;53.60
18882;DHT22;9573;50.948;11.600;2023-06-22T11:34:34;40.70;54.30
18882;DHT22;9573;50.948;11.600;2023-06-22T11:37:01;40.20;55.60
18882;DHT22;9573;50.948;11.600;2023-06-22T11:39:29;39.50;56.20
18882;DHT22;9573;50.948;11.600;2023-06-22T11:41:57;39.20;56.60
18882;DHT22;9573;50.948;11.600;2023-06-22T11:44:24;39.00;57.40
18882;DHT22;9573;50.948;11.600;2023-06-22T11:46:51;39.20;57.00
18882;DHT22;9573;50.948;11.600;2023-06-22T11:49:18;39.20;57.80
18882;DHT22;9573;50.948;11.600;2023-06-22T11:51:45;39.20;57.10
18882;DHT22;9573;50.948;11.600;2023-06-22T11:54:13;38.70;57.40
18882;DHT22;9573;50.948;11.600;2023-06-22T11:56:40;38.60;58.20
18882;DHT22;9573;50.948;11.600;2023-06-22T11:59:08;38.50;58.30
18882;DHT22;9573;50.948;11.600;2023-06-22T12:01:35;38.20;58.70
18882;DHT22;9573;50.948;11.600;2023-06-22T12:04:02;37.50;59.70
18882;DHT22;9573;50.948;11.600;2023-06-22T12:06:31;37.10;61.00
18882;DHT22;9573;50.948;11.600;2023-06-22T12:08:58;36.70;62.00
18882;DHT22;9573;50.948;11.600;2023-06-22T12:11:25;36.70;62.30
18882;DHT22;9573;50.948;11.600;2023-06-22T12:13:52;37.20;61.50
18882;DHT22;9573;50.948;11.600;2023-06-22T12:16:21;37.20;60.90
18882;DHT22;9573;50.948;11.600;2023-06-22T12:18:50;37.10;60.60
18882;DHT22;9573;50.948;11.600;2023-06-22T12:21:17;37.10;61.50
18882;DHT22;9573;50.948;11.600;2023-06-22T12:23:44;36.70;62.50
18882;DHT22;9573;50.948;11.600;2023-06-22T12:26:11;36.00;63.60
18882;DHT22;9573;50.948;11.600;2023-06-22T12:28:38;35.80;65.00
18882;DHT22;9573;50.948;11.600;2023-06-22T12:31:06;36.00;63.70
18882;DHT22;9573;50.948;11.600;2023-06-22T12:33:34;35.80;64.80
18882;DHT22;9573;50.948;11.600;2023-06-22T12:36:01;35.60;64.90
18882;DHT22;9573;50.948;11.600;2023-06-22T12:38:30;35.40;65.40
18882;DHT22;9573;50.948;11.600;2023-06-22T12:40:57;35.50;64.90
18882;DHT22;9573;50.948;11.600;2023-06-22T12:43:24;35.30;65.60
18882;DHT22;9573;50.948;11.600;2023-06-22T12:45:51;34.90;66.30
18882;DHT22;9573;50.948;11.600;2023-06-22T12:48:19;34.70;67.00
18882;DHT22;9573;50.948;11.600;2023-06-22T12:50:47;34.90;66.60
18882;DHT22;9573;50.948;11.600;2023-06-22T12:53:14;35.10;66.40
18882;DHT22;9573;50.948;11.600;2023-06-22T12:55:41;35.10;66.30
18882;DHT22;9573;50.948;11.600;2023-06-22T12:58:08;34.80;66.60
18882;DHT22;9573;50.948;11.600;2023-06-22T13:00:35;34.80;67.10
18882;DHT22;9573;50.948;11.600;2023-06-22T13:03:04;34.80;67.10
18882;DHT22;9573;50.948;11.600;2023-06-22T13:05:31;34.60;67.10
18882;DHT22;9573;50.948;11.600;2023-06-22T13:08:01;34.60;67.20
18882;DHT22;9573;50.948;11.600;2023-06-22T13:10:28;34.30;67.50
18882;DHT22;9573;50.948;11.600;2023-06-22T13:12:56;34.30;68.00
18882;DHT22;9573;50.948;11.600;2023-06-22T13:15:26;34.30;68.50
18882;DHT22;9573;50.948;11.600;2023-06-22T13:17:54;34.30;68.50
18882;DHT22;9573;50.948;11.600;2023-06-22T13:20:21;34.20;67.80
18882;DHT22;9573;50.948;11.600;2023-06-22T13:22:48;34.20;68.50
18882;DHT22;9573;50.948;11.600;2023-06-22T13:25:17;34.20;68.90
18882;DHT22;9573;50.948;11.600;2023-06-22T13:27:46;34.00;69.10
18882;DHT22;9573;50.948;11.600;2023-06-22T13:30:14;34.00;69.20
18882;DHT22;9573;50.948;11.600;2023-06-22T13:32:41;34.00;68.80
18882;DHT22;9573;50.948;11.600;2023-06-22T13:35:09;34.10;69.20
18882;DHT22;9573;50.948;11.600;2023-06-22T13:37:36;34.40;68.50
18882;DHT22;9573;50.948;11.600;2023-06-22T13:40:04;34.40;69.20
18882;DHT22;9573;50.948;11.600;2023-06-22T13:42:33;34.50;68.20
18882;DHT22;9573;50.948;11.600;2023-06-22T13:45:01;34.60;67.70
18882;DHT22;9573;50.948;11.600;2023-06-22T13:47:29;34.60;67.90
18882;DHT22;9573;50.948;11.600;2023-06-22T13:49:56;34.50;68.40
18882;DHT22;9573;50.948;11.600;2023-06-22T13:52:24;34.20;68.80
18882;DHT22;9573;50.948;11.600;2023-06-22T13:54:51;34.10;70.00
18882;DHT22;9573;50.948;11.600;2023-06-22T13:57:18;34.20;69.10
18882;DHT22;9573;50.948;11.600;2023-06-22T13:59:47;34.40;68.40
18882;DHT22;9573;50.948;11.600;2023-06-22T14:02:14;34.70;68.30
18882;DHT22;9573;50.948;11.600;2023-06-22T14:04:41;34.90;67.60
18882;DHT22;9573;50.948;11.600;2023-06-22T14:07:08;34.90;67.70
18882;DHT22;9573;50.948;11.600;2023-06-22T14:09:35;34.50;68.30
18882;DHT22;9573;50.948;11.600;2023-06-22T14:12:03;34.40;68.60
18882;DHT22;9573;50.948;11.600;2023-06-22T14:14:31;34.30;68.70
18882;DHT22;9573;50.948;11.600;2023-06-22T14:17:00;34.00;69.10
18882;DHT22;9573;50.948;11.600;2023-06-22T14:19:27;33.80;69.50
18882;DHT22;9573;50.948;11.600;2023-06-22T14:21:54;33.60;70.10
18882;DHT22;9573;50.948;11.600;2023-06-22T14:24:22;33.40;70.70
18882;DHT22;9573;50.948;11.600;2023-06-22T14:26:49;33.30;70.60
18882;DHT22;9573;50.948;11.600;2023-06-22T14:29:16;33.20;70.90
18882;DHT22;9573;50.948;11.600;2023-06-22T14:31:45;33.20;70.80
18882;DHT22;9573;50.948;11.600;2023-06-22T14:34:15;33.30;72.00
18882;DHT22;9573;50.948;11.600;2023-06-22T14:36:42;33.50;71.00
18882;DHT22;9573;50.948;11.600;2023-06-22T14:39:10;33.60;70.50
18882;DHT22;9573;50.948;11.600;2023-06-22T14:41:37;33.40;70.90
18882;DHT22;9573;50.948;11.600;2023-06-22T14:44:04;33.20;71.30
18882;DHT22;9573;50.948;11.600;2023-06-22T14:46:31;33.10;71.40
18882;DHT22;9573;50.948;11.600;2023-06-22T14:48:58;33.00;71.90
18882;DHT22;9573;50.948;11.600;2023-06-22T14:51:27;33.00;72.10
18882;DHT22;9573;50.948;11.600;2023-06-22T14:53:54;33.10;72.10
18882;DHT22;9573;50.948;11.600;2023-06-22T14:56:22;33.10;72.30
18882;DHT22;9573;50.948;11.600;2023-06-22T14:58:49;33.10;72.20
18882;DHT22;9573;50.948;11.600;2023-06-22T15:01:16;33.10;72.50
18882;DHT22;9573;50.948;11.600;2023-06-22T15:03:44;33.20;72.30
18882;DHT22;9573;50.948;11.600;2023-06-22T15:06:11;33.10;72.60
18882;DHT22;9573;50.948;11.600;2023-06-22T15:08:40;33.00;73.20
18882;DHT22;9573;50.948;11.600;2023-06-22T15:11:08;32.90;73.20
18882;DHT22;9573;50.948;11.600;2023-06-22T15:13:39;32.80;73.30
18882;DHT22;9573;50.948;11.600;2023-06-22T15:16:07;32.90;73.50
18882;DHT22;9573;50.948;11.600;2023-06-22T15:18:35;32.70;73.80
18882;DHT22;9573;50.948;11.600;2023-06-22T15:21:03;32.60;74.10
18882;DHT22;9573;50.948;11.600;2023-06-22T15:23:31;32.50;74.20
18882;DHT22;9573;50.948;11.600;2023-06-22T15:26:02;32.40;74.90
18882;DHT22;9573;50.948;11.600;2023-06-22T15:28:30;32.40;75.00
18882;DHT22;9573;50.948;11.600;2023-06-22T15:30:57;32.50;75.10
18882;DHT22;9573;50.948;11.600;2023-06-22T15:33:38;32.40;74.60
18882;DHT22;9573;50.948;11.600;2023-06-22T15:36:06;32.40;75.30
18882;DHT22;9573;50.948;11.600;2023-06-22T15:38:34;32.30;75.50